sensor_id;sensor_type;location;lat;lon;timestamp;temperature;humidity
24326;DHT22;12448;45.532;5.290;2022-09-12T00:00:24;19.00;69.40
24326;DHT22;12448;45.532;5.290;2022-09-12T00:02:59;19.00;69.20
24326;DHT22;12448;45.532;5.290;2022-09-12T00:05:54;19.00;69.30
24326;DHT22;12448;45.532;5.290;2022-09-12T00:08:47;18.90;69.40
24326;DHT22;12448;45.532;5.290;2022-09-12T00:12:00;18.70;69.60
24326;DHT22;12448;45.532;5.290;2022-09-12T00:15:13;19.00;70.20
24326;DHT22;12448;45.532;5.290;2022-09-12T00:18:11;18.70;70.00
24326;DHT22;12448;45.532;5.290;2022-09-12T00:21:15;18.80;70.00
24326;DHT22;12448;45.532;5.290;2022-09-12T00:23:54;18.90;70.70
24326;DHT22;12448;45.532;5.290;2022-09-12T00:26:36;18.90;69.90
24326;DHT22;12448;45.532;5.290;2022-09-12T00:29:29;18.80;69.80
24326;DHT22;12448;45.532;5.290;2022-09-12T00:32:01;18.70;69.90
24326;DHT22;12448;45.532;5.290;2022-09-12T00:34:27;18.70;70.10
24326;DHT22;12448;45.532;5.290;2022-09-12T00:36:53;18.70;70.00
24326;DHT22;12448;45.532;5.290;2022-09-12T00:39:28;18.70;69.90
24326;DHT22;12448;45.532;5.290;2022-09-12T00:41:54;18.70;69.90
24326;DHT22;12448;45.532;5.290;2022-09-12T01:02:18;18.70;70.50
24326;DHT22;12448;45.532;5.290;2022-09-12T01:06:25;18.70;70.50
24326;DHT22;12448;45.532;5.290;2022-09-12T01:12:24;18.70;70.50
24326;DHT22;12448;45.532;5.290;2022-09-12T01:15:05;18.70;70.70
24326;DHT22;12448;45.532;5.290;2022-09-12T01:18:29;18.70;70.80
24326;DHT22;12448;45.532;5.290;2022-09-12T01:48:31;18.60;72.10
24326;DHT22;12448;45.532;5.290;2022-09-12T02:09:29;18.60;71.30
24326;DHT22;12448;45.532;5.290;2022-09-12T02:15:31;18.50;71.50
24326;DHT22;12448;45.532;5.290;2022-09-12T02:18:56;18.40;71.40
24326;DHT22;12448;45.532;5.290;2022-09-12T02:21:27;18.40;71.30
24326;DHT22;12448;45.532;5.290;2022-09-12T02:23:58;18.40;71.30
24326;DHT22;12448;45.532;5.290;2022-09-12T02:26:36;18.40;71.30
24326;DHT22;12448;45.532;5.290;2022-09-12T02:29:04;18.40;71.20
24326;DHT22;12448;45.532;5.290;2022-09-12T02:31:58;18.40;71.30
24326;DHT22;12448;45.532;5.290;2022-09-12T02:34:45;18.40;71.40
24326;DHT22;12448;45.532;5.290;2022-09-12T02:39:45;18.40;71.00
24326;DHT22;12448;45.532;5.290;2022-09-12T02:42:21;18.30;70.90
24326;DHT22;12448;45.532;5.290;2022-09-12T02:44:56;18.30;70.50
24326;DHT22;12448;45.532;5.290;2022-09-12T02:47:33;18.20;70.60
24326;DHT22;12448;45.532;5.290;2022-09-12T02:50:28;18.20;70.80
24326;DHT22;12448;45.532;5.290;2022-09-12T02:52:57;18.20;70.80
24326;DHT22;12448;45.532;5.290;2022-09-12T02:55:32;18.20;70.80
24326;DHT22;12448;45.532;5.290;2022-09-12T02:58:03;18.20;70.60
24326;DHT22;12448;45.532;5.290;2022-09-12T03:00:37;18.30;70.60
24326;DHT22;12448;45.532;5.290;2022-09-12T03:05:58;18.20;70.20
24326;DHT22;12448;45.532;5.290;2022-09-12T03:29:34;18.10;70.40
24326;DHT22;12448;45.532;5.290;2022-09-12T03:32:48;18.00;70.60
24326;DHT22;12448;45.532;5.290;2022-09-12T03:35:26;18.00;70.80
24326;DHT22;12448;45.532;5.290;2022-09-12T03:38:04;18.00;70.90
24326;DHT22;12448;45.532;5.290;2022-09-12T03:40:57;18.00;71.20
24326;DHT22;12448;45.532;5.290;2022-09-12T03:43:49;18.00;71.30
24326;DHT22;12448;45.532;5.290;2022-09-12T03:46:15;18.10;71.40
24326;DHT22;12448;45.532;5.290;2022-09-12T03:48:44;18.10;71.20
24326;DHT22;12448;45.532;5.290;2022-09-12T03:51:15;18.00;71.10
24326;DHT22;12448;45.532;5.290;2022-09-12T03:53:49;18.00;71.10
24326;DHT22;12448;45.532;5.290;2022-09-12T03:56:27;18.10;71.30
24326;DHT22;12448;45.532;5.290;2022-09-12T03:59:08;18.00;71.40
24326;DHT22;12448;45.532;5.290;2022-09-12T04:01:58;18.00;71.40
24326;DHT22;12448;45.532;5.290;2022-09-12T04:04:36;18.00;71.50
24326;DHT22;12448;45.532;5.290;2022-09-12T04:07:09;18.00;71.60
24326;DHT22;12448;45.532;5.290;2022-09-12T04:09:38;18.00;71.50
24326;DHT22;12448;45.532;5.290;2022-09-12T04:12:04;18.00;71.40
24326;DHT22;12448;45.532;5.290;2022-09-12T04:14:33;18.00;71.40
24326;DHT22;12448;45.532;5.290;2022-09-12T04:16:59;17.90;71.50
24326;DHT22;12448;45.532;5.290;2022-09-12T04:19:25;18.00;71.50
24326;DHT22;12448;45.532;5.290;2022-09-12T04:22:01;17.90;71.40
24326;DHT22;12448;45.532;5.290;2022-09-12T04:24:27;17.90;71.40
24326;DHT22;12448;45.532;5.290;2022-09-12T04:26:52;17.90;71.50
24326;DHT22;12448;45.532;5.290;2022-09-12T04:29:24;17.90;71.50
24326;DHT22;12448;45.532;5.290;2022-09-12T04:31:57;17.90;71.50
24326;DHT22;12448;45.532;5.290;2022-09-12T04:34:23;17.80;71.40
24326;DHT22;12448;45.532;5.290;2022-09-12T04:36:48;17.80;71.50
24326;DHT22;12448;45.532;5.290;2022-09-12T04:39:14;17.80;71.70
24326;DHT22;12448;45.532;5.290;2022-09-12T04:41:41;17.80;72.10
24326;DHT22;12448;45.532;5.290;2022-09-12T04:44:10;17.80;72.20
24326;DHT22;12448;45.532;5.290;2022-09-12T04:46:39;17.70;72.20
24326;DHT22;12448;45.532;5.290;2022-09-12T04:49:05;17.80;72.10
24326;DHT22;12448;45.532;5.290;2022-09-12T04:51:33;17.80;72.00
24326;DHT22;12448;45.532;5.290;2022-09-12T04:54:02;17.80;71.80
24326;DHT22;12448;45.532;5.290;2022-09-12T04:56:28;17.80;71.60
24326;DHT22;12448;45.532;5.290;2022-09-12T04:58:59;17.80;71.90
24326;DHT22;12448;45.532;5.290;2022-09-12T05:01:26;17.80;71.90
24326;DHT22;12448;45.532;5.290;2022-09-12T05:03:52;17.80;72.00
24326;DHT22;12448;45.532;5.290;2022-09-12T05:06:24;17.80;72.10
24326;DHT22;12448;45.532;5.290;2022-09-12T05:08:50;17.90;72.00
24326;DHT22;12448;45.532;5.290;2022-09-12T05:11:19;17.80;71.80
24326;DHT22;12448;45.532;5.290;2022-09-12T05:13:45;17.80;71.90
24326;DHT22;12448;45.532;5.290;2022-09-12T05:16:12;17.80;71.80
24326;DHT22;12448;45.532;5.290;2022-09-12T05:18:40;17.80;71.60
24326;DHT22;12448;45.532;5.290;2022-09-12T05:21:09;17.90;71.50
24326;DHT22;12448;45.532;5.290;2022-09-12T05:23:35;18.00;71.40
24326;DHT22;12448;45.532;5.290;2022-09-12T05:26:01;18.00;71.50
24326;DHT22;12448;45.532;5.290;2022-09-12T05:28:35;18.00;71.50
24326;DHT22;12448;45.532;5.290;2022-09-12T05:31:02;18.00;71.50
24326;DHT22;12448;45.532;5.290;2022-09-12T05:33:29;18.00;71.40
24326;DHT22;12448;45.532;5.290;2022-09-12T05:35:55;18.00;71.50
24326;DHT22;12448;45.532;5.290;2022-09-12T05:38:24;18.00;71.30
24326;DHT22;12448;45.532;5.290;2022-09-12T05:41:09;18.00;71.40
24326;DHT22;12448;45.532;5.290;2022-09-12T05:43:45;18.00;71.40
24326;DHT22;12448;45.532;5.290;2022-09-12T05:46:18;18.10;71.50
24326;DHT22;12448;45.532;5.290;2022-09-12T05:49:06;18.10;71.60
24326;DHT22;12448;45.532;5.290;2022-09-12T05:54:54;18.10;71.50
24326;DHT22;12448;45.532;5.290;2022-09-12T05:57:27;18.00;71.60
24326;DHT22;12448;45.532;5.290;2022-09-12T05:59:53;18.10;71.70
24326;DHT22;12448;45.532;5.290;2022-09-12T06:02:34;18.00;71.50
24326;DHT22;12448;45.532;5.290;2022-09-12T06:05:03;18.10;71.70
24326;DHT22;12448;45.532;5.290;2022-09-12T06:07:28;18.00;71.50
24326;DHT22;12448;45.532;5.290;2022-09-12T06:09:55;18.00;72.30
24326;DHT22;12448;45.532;5.290;2022-09-12T06:12:21;18.00;72.60
24326;DHT22;12448;45.532;5.290;2022-09-12T06:14:46;17.90;72.60
24326;DHT22;12448;45.532;5.290;2022-09-12T06:17:12;17.90;72.80
24326;DHT22;12448;45.532;5.290;2022-09-12T06:19:37;18.00;73.00
24326;DHT22;12448;45.532;5.290;2022-09-12T06:22:03;18.10;72.80
24326;DHT22;12448;45.532;5.290;2022-09-12T06:24:38;18.10;72.80
24326;DHT22;12448;45.532;5.290;2022-09-12T06:29:56;18.20;72.60
24326;DHT22;12448;45.532;5.290;2022-09-12T06:32:24;18.30;72.10
24326;DHT22;12448;45.532;5.290;2022-09-12T06:34:50;18.40;71.80
24326;DHT22;12448;45.532;5.290;2022-09-12T06:37:22;18.50;71.60
24326;DHT22;12448;45.532;5.290;2022-09-12T06:39:48;18.50;71.20
24326;DHT22;12448;45.532;5.290;2022-09-12T06:42:13;18.60;70.90
24326;DHT22;12448;45.532;5.290;2022-09-12T06:44:39;18.70;70.70
24326;DHT22;12448;45.532;5.290;2022-09-12T06:47:35;18.70;70.20
24326;DHT22;12448;45.532;5.290;2022-09-12T06:50:07;18.80;70.10
24326;DHT22;12448;45.532;5.290;2022-09-12T06:55:58;18.90;70.00
24326;DHT22;12448;45.532;5.290;2022-09-12T06:58:35;19.00;70.10
24326;DHT22;12448;45.532;5.290;2022-09-12T07:04:57;19.10;69.60
24326;DHT22;12448;45.532;5.290;2022-09-12T07:07:25;19.10;69.80
24326;DHT22;12448;45.532;5.290;2022-09-12T07:09:51;19.10;69.80
24326;DHT22;12448;45.532;5.290;2022-09-12T07:12:22;19.20;70.10
24326;DHT22;12448;45.532;5.290;2022-09-12T07:14:56;19.20;70.30
24326;DHT22;12448;45.532;5.290;2022-09-12T07:17:22;19.30;70.60
24326;DHT22;12448;45.532;5.290;2022-09-12T07:19:48;19.20;70.50
24326;DHT22;12448;45.532;5.290;2022-09-12T07:22:13;19.30;70.40
24326;DHT22;12448;45.532;5.290;2022-09-12T07:24:39;19.30;70.30
24326;DHT22;12448;45.532;5.290;2022-09-12T07:27:05;19.40;70.20
24326;DHT22;12448;45.532;5.290;2022-09-12T07:29:34;19.40;70.10
24326;DHT22;12448;45.532;5.290;2022-09-12T07:32:00;19.40;69.50
24326;DHT22;12448;45.532;5.290;2022-09-12T07:34:26;19.40;69.80
24326;DHT22;12448;45.532;5.290;2022-09-12T07:36:58;19.50;69.70
24326;DHT22;12448;45.532;5.290;2022-09-12T07:39:57;19.50;69.60
24326;DHT22;12448;45.532;5.290;2022-09-12T07:42:23;19.60;69.80
24326;DHT22;12448;45.532;5.290;2022-09-12T07:44:49;19.60;69.60
24326;DHT22;12448;45.532;5.290;2022-09-12T07:47:18;19.60;69.50
24326;DHT22;12448;45.532;5.290;2022-09-12T07:50:29;19.70;69.40
24326;DHT22;12448;45.532;5.290;2022-09-12T07:53:07;19.70;69.30
24326;DHT22;12448;45.532;5.290;2022-09-12T07:55:52;19.80;69.60
24326;DHT22;12448;45.532;5.290;2022-09-12T07:58:46;19.80;69.70
24326;DHT22;12448;45.532;5.290;2022-09-12T08:01:20;19.90;69.70
24326;DHT22;12448;45.532;5.290;2022-09-12T08:03:51;19.90;69.90
24326;DHT22;12448;45.532;5.290;2022-09-12T08:06:19;20.00;69.80
24326;DHT22;12448;45.532;5.290;2022-09-12T08:08:46;20.00;69.80
24326;DHT22;12448;45.532;5.290;2022-09-12T08:11:14;20.00;69.80
24326;DHT22;12448;45.532;5.290;2022-09-12T08:13:41;20.10;69.70
24326;DHT22;12448;45.532;5.290;2022-09-12T08:16:18;20.20;69.60
24326;DHT22;12448;45.532;5.290;2022-09-12T08:18:46;20.30;69.30
24326;DHT22;12448;45.532;5.290;2022-09-12T08:21:15;20.30;69.20
24326;DHT22;12448;45.532;5.290;2022-09-12T08:23:41;20.30;69.20
24326;DHT22;12448;45.532;5.290;2022-09-12T08:26:09;20.40;69.30
24326;DHT22;12448;45.532;5.290;2022-09-12T08:28:36;20.50;69.30
24326;DHT22;12448;45.532;5.290;2022-09-12T08:31:03;20.50;69.10
24326;DHT22;12448;45.532;5.290;2022-09-12T08:33:29;20.60;69.30
24326;DHT22;12448;45.532;5.290;2022-09-12T08:36:03;20.60;69.20
24326;DHT22;12448;45.532;5.290;2022-09-12T08:38:29;20.70;69.00
24326;DHT22;12448;45.532;5.290;2022-09-12T08:43:37;20.80;68.70
24326;DHT22;12448;45.532;5.290;2022-09-12T08:46:17;20.90;68.50
24326;DHT22;12448;45.532;5.290;2022-09-12T08:48:45;20.90;68.20
24326;DHT22;12448;45.532;5.290;2022-09-12T08:51:20;21.00;68.00
24326;DHT22;12448;45.532;5.290;2022-09-12T08:53:50;20.90;67.60
24326;DHT22;12448;45.532;5.290;2022-09-12T08:56:26;21.10;67.50
24326;DHT22;12448;45.532;5.290;2022-09-12T08:58:53;21.20;67.40
24326;DHT22;12448;45.532;5.290;2022-09-12T09:16:47;21.60;65.20
24326;DHT22;12448;45.532;5.290;2022-09-12T09:19:22;21.60;63.60
24326;DHT22;12448;45.532;5.290;2022-09-12T09:21:59;21.60;62.40
24326;DHT22;12448;45.532;5.290;2022-09-12T09:24:32;21.70;61.50
24326;DHT22;12448;45.532;5.290;2022-09-12T09:27:19;21.80;61.10
24326;DHT22;12448;45.532;5.290;2022-09-12T09:29:52;21.90;59.80
24326;DHT22;12448;45.532;5.290;2022-09-12T09:32:34;22.00;59.70
24326;DHT22;12448;45.532;5.290;2022-09-12T09:35:13;22.10;59.20
24326;DHT22;12448;45.532;5.290;2022-09-12T09:37:58;22.20;59.00
24326;DHT22;12448;45.532;5.290;2022-09-12T09:43:41;22.30;58.50
24326;DHT22;12448;45.532;5.290;2022-09-12T09:46:06;22.30;59.20
24326;DHT22;12448;45.532;5.290;2022-09-12T09:48:40;22.40;59.10
24326;DHT22;12448;45.532;5.290;2022-09-12T09:51:08;22.50;58.80
24326;DHT22;12448;45.532;5.290;2022-09-12T09:56:32;22.70;59.30
24326;DHT22;12448;45.532;5.290;2022-09-12T09:59:18;22.70;59.00
24326;DHT22;12448;45.532;5.290;2022-09-12T10:01:53;22.80;58.50
24326;DHT22;12448;45.532;5.290;2022-09-12T10:04:26;22.90;58.20
24326;DHT22;12448;45.532;5.290;2022-09-12T10:06:58;23.00;58.40
24326;DHT22;12448;45.532;5.290;2022-09-12T10:09:25;23.00;58.10
24326;DHT22;12448;45.532;5.290;2022-09-12T10:11:52;23.00;58.00
24326;DHT22;12448;45.532;5.290;2022-09-12T10:14:39;23.10;58.00
24326;DHT22;12448;45.532;5.290;2022-09-12T10:19:54;23.20;57.50
24326;DHT22;12448;45.532;5.290;2022-09-12T10:22:26;23.30;57.60
24326;DHT22;12448;45.532;5.290;2022-09-12T10:24:58;23.40;57.50
24326;DHT22;12448;45.532;5.290;2022-09-12T10:27:29;23.30;58.10
24326;DHT22;12448;45.532;5.290;2022-09-12T10:32:48;23.50;57.50
24326;DHT22;12448;45.532;5.290;2022-09-12T10:35:27;23.60;57.10
24326;DHT22;12448;45.532;5.290;2022-09-12T10:37:59;23.60;57.60
24326;DHT22;12448;45.532;5.290;2022-09-12T10:40:29;23.60;57.70
24326;DHT22;12448;45.532;5.290;2022-09-12T10:43:00;23.70;57.70
24326;DHT22;12448;45.532;5.290;2022-09-12T10:45:32;23.70;57.60
24326;DHT22;12448;45.532;5.290;2022-09-12T10:48:02;23.80;57.60
24326;DHT22;12448;45.532;5.290;2022-09-12T10:50:40;23.80;57.50
24326;DHT22;12448;45.532;5.290;2022-09-12T10:53:25;23.90;57.10
24326;DHT22;12448;45.532;5.290;2022-09-12T11:01:46;24.10;56.60
24326;DHT22;12448;45.532;5.290;2022-09-12T11:09:32;24.20;55.80
24326;DHT22;12448;45.532;5.290;2022-09-12T11:17:34;24.40;55.20
24326;DHT22;12448;45.532;5.290;2022-09-12T11:20:25;24.50;55.10
24326;DHT22;12448;45.532;5.290;2022-09-12T11:23:06;24.50;55.10
24326;DHT22;12448;45.532;5.290;2022-09-12T11:26:48;24.60;55.30
24326;DHT22;12448;45.532;5.290;2022-09-12T11:29:07;24.60;54.70
24326;DHT22;12448;45.532;5.290;2022-09-12T11:34:10;24.80;54.20
24326;DHT22;12448;45.532;5.290;2022-09-12T11:39:41;24.90;53.60
24326;DHT22;12448;45.532;5.290;2022-09-12T11:42:17;25.00;53.00
24326;DHT22;12448;45.532;5.290;2022-09-12T11:44:46;25.00;53.20
24326;DHT22;12448;45.532;5.290;2022-09-12T11:47:14;25.10;52.90
24326;DHT22;12448;45.532;5.290;2022-09-12T11:49:44;25.10;52.90
24326;DHT22;12448;45.532;5.290;2022-09-12T11:52:25;25.30;52.90
24326;DHT22;12448;45.532;5.290;2022-09-12T11:55:06;25.40;52.40
24326;DHT22;12448;45.532;5.290;2022-09-12T12:03:08;25.80;50.90
24326;DHT22;12448;45.532;5.290;2022-09-12T12:05:54;25.80;50.70
24326;DHT22;12448;45.532;5.290;2022-09-12T12:08:23;25.90;50.90
24326;DHT22;12448;45.532;5.290;2022-09-12T12:11:00;26.00;50.70
24326;DHT22;12448;45.532;5.290;2022-09-12T12:13:31;26.00;50.40
24326;DHT22;12448;45.532;5.290;2022-09-12T12:16:05;26.00;50.40
24326;DHT22;12448;45.532;5.290;2022-09-12T12:18:34;26.00;50.60
24326;DHT22;12448;45.532;5.290;2022-09-12T12:21:18;26.00;50.20
24326;DHT22;12448;45.532;5.290;2022-09-12T12:29:46;25.70;50.00
24326;DHT22;12448;45.532;5.290;2022-09-12T12:34:42;25.50;50.80
24326;DHT22;12448;45.532;5.290;2022-09-12T12:52:48;26.10;49.70
24326;DHT22;12448;45.532;5.290;2022-09-12T12:57:48;26.30;49.50
24326;DHT22;12448;45.532;5.290;2022-09-12T13:03:17;26.50;49.40
24326;DHT22;12448;45.532;5.290;2022-09-12T13:05:59;26.50;49.00
24326;DHT22;12448;45.532;5.290;2022-09-12T13:08:31;26.60;48.90
24326;DHT22;12448;45.532;5.290;2022-09-12T13:11:07;26.60;49.00
24326;DHT22;12448;45.532;5.290;2022-09-12T13:16:04;26.70;47.80
24326;DHT22;12448;45.532;5.290;2022-09-12T13:18:48;26.70;47.20
24326;DHT22;12448;45.532;5.290;2022-09-12T13:21:19;26.90;46.70
24326;DHT22;12448;45.532;5.290;2022-09-12T13:24:19;26.90;46.60
24326;DHT22;12448;45.532;5.290;2022-09-12T13:26:44;27.00;46.20
24326;DHT22;12448;45.532;5.290;2022-09-12T13:29:17;27.10;46.00
24326;DHT22;12448;45.532;5.290;2022-09-12T13:31:48;27.10;44.90
24326;DHT22;12448;45.532;5.290;2022-09-12T13:34:25;27.10;45.00
24326;DHT22;12448;45.532;5.290;2022-09-12T13:39:47;27.10;45.50
24326;DHT22;12448;45.532;5.290;2022-09-12T13:42:37;27.20;45.70
24326;DHT22;12448;45.532;5.290;2022-09-12T13:45:22;27.30;44.00
24326;DHT22;12448;45.532;5.290;2022-09-12T13:47:51;27.30;44.60
24326;DHT22;12448;45.532;5.290;2022-09-12T13:50:30;27.30;44.50
24326;DHT22;12448;45.532;5.290;2022-09-12T13:52:59;27.40;44.00
24326;DHT22;12448;45.532;5.290;2022-09-12T13:55:52;27.40;43.80
24326;DHT22;12448;45.532;5.290;2022-09-12T13:58:26;27.50;44.20
24326;DHT22;12448;45.532;5.290;2022-09-12T14:04:01;27.60;44.00
24326;DHT22;12448;45.532;5.290;2022-09-12T14:06:46;27.50;44.50
24326;DHT22;12448;45.532;5.290;2022-09-12T14:09:26;27.60;43.70
24326;DHT22;12448;45.532;5.290;2022-09-12T14:11:54;27.70;43.20
24326;DHT22;12448;45.532;5.290;2022-09-12T14:16:52;27.80;44.00
24326;DHT22;12448;45.532;5.290;2022-09-12T14:19:18;27.80;44.50
24326;DHT22;12448;45.532;5.290;2022-09-12T14:21:45;27.80;44.30
24326;DHT22;12448;45.532;5.290;2022-09-12T14:24:11;27.80;44.50
24326;DHT22;12448;45.532;5.290;2022-09-12T14:26:38;27.80;44.60
24326;DHT22;12448;45.532;5.290;2022-09-12T14:29:05;27.90;44.70
24326;DHT22;12448;45.532;5.290;2022-09-12T14:31:34;27.90;44.60
24326;DHT22;12448;45.532;5.290;2022-09-12T14:34:13;27.90;44.30
24326;DHT22;12448;45.532;5.290;2022-09-12T14:36:51;27.90;44.60
24326;DHT22;12448;45.532;5.290;2022-09-12T14:39:33;27.90;44.30
24326;DHT22;12448;45.532;5.290;2022-09-12T14:42:13;27.90;44.60
24326;DHT22;12448;45.532;5.290;2022-09-12T14:44:48;27.80;44.60
24326;DHT22;12448;45.532;5.290;2022-09-12T14:47:36;27.80;44.80
24326;DHT22;12448;45.532;5.290;2022-09-12T14:50:03;27.90;44.80
24326;DHT22;12448;45.532;5.290;2022-09-12T14:52:32;27.80;45.10
24326;DHT22;12448;45.532;5.290;2022-09-12T14:55:22;27.80;44.80
24326;DHT22;12448;45.532;5.290;2022-09-12T14:58:10;27.80;45.00
24326;DHT22;12448;45.532;5.290;2022-09-12T15:00:53;27.70;44.80
24326;DHT22;12448;45.532;5.290;2022-09-12T15:03:36;27.70;45.20
24326;DHT22;12448;45.532;5.290;2022-09-12T15:06:33;27.60;45.40
24326;DHT22;12448;45.532;5.290;2022-09-12T15:09:07;27.60;44.90
24326;DHT22;12448;45.532;5.290;2022-09-12T15:11:36;27.20;45.00
24326;DHT22;12448;45.532;5.290;2022-09-12T15:14:14;27.50;45.70
24326;DHT22;12448;45.532;5.290;2022-09-12T15:16:40;27.50;45.40
24326;DHT22;12448;45.532;5.290;2022-09-12T15:19:08;27.50;45.70
24326;DHT22;12448;45.532;5.290;2022-09-12T15:21:35;27.50;45.90
24326;DHT22;12448;45.532;5.290;2022-09-12T15:24:02;27.50;46.10
24326;DHT22;12448;45.532;5.290;2022-09-12T15:26:28;27.50;46.20
24326;DHT22;12448;45.532;5.290;2022-09-12T15:28:56;27.40;46.20
24326;DHT22;12448;45.532;5.290;2022-09-12T15:31:27;27.40;46.20
24326;DHT22;12448;45.532;5.290;2022-09-12T15:33:56;27.40;46.10
24326;DHT22;12448;45.532;5.290;2022-09-12T15:36:26;27.40;46.50
24326;DHT22;12448;45.532;5.290;2022-09-12T15:38:54;27.40;46.80
24326;DHT22;12448;45.532;5.290;2022-09-12T15:43:49;27.30;47.30
24326;DHT22;12448;45.532;5.290;2022-09-12T15:46:18;26.70;47.30
24326;DHT22;12448;45.532;5.290;2022-09-12T15:48:44;27.30;47.80
24326;DHT22;12448;45.532;5.290;2022-09-12T15:51:17;27.20;47.90
24326;DHT22;12448;45.532;5.290;2022-09-12T15:53:44;27.20;47.90
24326;DHT22;12448;45.532;5.290;2022-09-12T15:56:10;27.20;48.00
24326;DHT22;12448;45.532;5.290;2022-09-12T15:58:36;27.20;48.00
24326;DHT22;12448;45.532;5.290;2022-09-12T16:01:02;27.10;48.00
24326;DHT22;12448;45.532;5.290;2022-09-12T16:03:29;27.10;48.00
24326;DHT22;12448;45.532;5.290;2022-09-12T16:05:59;27.10;48.00
24326;DHT22;12448;45.532;5.290;2022-09-12T16:08:27;27.00;48.40
24326;DHT22;12448;45.532;5.290;2022-09-12T16:13:41;27.00;48.50
24326;DHT22;12448;45.532;5.290;2022-09-12T16:16:08;26.90;49.00
24326;DHT22;12448;45.532;5.290;2022-09-12T16:18:34;26.90;49.40
24326;DHT22;12448;45.532;5.290;2022-09-12T16:20:59;26.80;49.40
24326;DHT22;12448;45.532;5.290;2022-09-12T16:23:25;26.80;49.40
24326;DHT22;12448;45.532;5.290;2022-09-12T16:25:58;26.80;49.70
24326;DHT22;12448;45.532;5.290;2022-09-12T16:28:25;26.80;49.70
24326;DHT22;12448;45.532;5.290;2022-09-12T16:30:55;26.70;49.90
24326;DHT22;12448;45.532;5.290;2022-09-12T16:33:23;26.70;50.70
24326;DHT22;12448;45.532;5.290;2022-09-12T16:35:50;26.60;50.30
24326;DHT22;12448;45.532;5.290;2022-09-12T16:38:20;26.60;50.60
24326;DHT22;12448;45.532;5.290;2022-09-12T16:40:46;26.60;50.80
24326;DHT22;12448;45.532;5.290;2022-09-12T16:43:11;26.60;50.90
24326;DHT22;12448;45.532;5.290;2022-09-12T16:45:38;26.50;51.00
24326;DHT22;12448;45.532;5.290;2022-09-12T16:48:03;26.50;51.30
24326;DHT22;12448;45.532;5.290;2022-09-12T16:50:29;26.40;51.40
24326;DHT22;12448;45.532;5.290;2022-09-12T16:52:54;26.40;51.60
24326;DHT22;12448;45.532;5.290;2022-09-12T16:55:20;26.40;51.80
24326;DHT22;12448;45.532;5.290;2022-09-12T16:57:46;26.30;51.90
24326;DHT22;12448;45.532;5.290;2022-09-12T17:00:13;26.30;52.10
24326;DHT22;12448;45.532;5.290;2022-09-12T17:02:39;26.30;52.40
24326;DHT22;12448;45.532;5.290;2022-09-12T17:05:05;26.30;52.60
24326;DHT22;12448;45.532;5.290;2022-09-12T17:07:31;26.20;52.70
24326;DHT22;12448;45.532;5.290;2022-09-12T17:09:58;26.20;52.90
24326;DHT22;12448;45.532;5.290;2022-09-12T17:12:24;26.10;53.00
24326;DHT22;12448;45.532;5.290;2022-09-12T17:14:50;26.10;53.20
24326;DHT22;12448;45.532;5.290;2022-09-12T17:17:15;26.10;53.30
24326;DHT22;12448;45.532;5.290;2022-09-12T17:19:41;26.00;53.50
24326;DHT22;12448;45.532;5.290;2022-09-12T17:22:08;26.00;53.60
24326;DHT22;12448;45.532;5.290;2022-09-12T17:24:33;26.00;53.80
24326;DHT22;12448;45.532;5.290;2022-09-12T17:26:59;26.00;53.90
24326;DHT22;12448;45.532;5.290;2022-09-12T17:29:25;26.00;53.90
24326;DHT22;12448;45.532;5.290;2022-09-12T17:31:51;26.00;54.00
24326;DHT22;12448;45.532;5.290;2022-09-12T17:34:16;26.00;54.00
24326;DHT22;12448;45.532;5.290;2022-09-12T17:36:43;26.00;54.10
24326;DHT22;12448;45.532;5.290;2022-09-12T17:39:10;26.00;54.10
24326;DHT22;12448;45.532;5.290;2022-09-12T17:41:36;26.00;54.30
24326;DHT22;12448;45.532;5.290;2022-09-12T17:44:02;25.90;54.40
24326;DHT22;12448;45.532;5.290;2022-09-12T17:46:34;25.90;54.60
24326;DHT22;12448;45.532;5.290;2022-09-12T17:49:01;25.90;54.60
24326;DHT22;12448;45.532;5.290;2022-09-12T17:51:29;25.90;54.80
24326;DHT22;12448;45.532;5.290;2022-09-12T17:53:57;25.80;54.80
24326;DHT22;12448;45.532;5.290;2022-09-12T17:56:29;25.80;55.00
24326;DHT22;12448;45.532;5.290;2022-09-12T17:58:56;25.70;55.20
24326;DHT22;12448;45.532;5.290;2022-09-12T18:01:23;25.70;55.40
24326;DHT22;12448;45.532;5.290;2022-09-12T18:04:08;25.60;55.50
24326;DHT22;12448;45.532;5.290;2022-09-12T18:06:35;25.60;55.70
24326;DHT22;12448;45.532;5.290;2022-09-12T18:09:04;25.50;55.80
24326;DHT22;12448;45.532;5.290;2022-09-12T18:11:30;25.50;56.00
24326;DHT22;12448;45.532;5.290;2022-09-12T18:13:57;25.50;56.20
24326;DHT22;12448;45.532;5.290;2022-09-12T18:16:24;25.40;56.30
24326;DHT22;12448;45.532;5.290;2022-09-12T18:18:49;25.40;56.60
24326;DHT22;12448;45.532;5.290;2022-09-12T18:21:15;25.30;56.70
24326;DHT22;12448;45.532;5.290;2022-09-12T18:23:41;25.30;56.80
24326;DHT22;12448;45.532;5.290;2022-09-12T18:26:09;25.30;57.00
24326;DHT22;12448;45.532;5.290;2022-09-12T18:28:38;25.30;57.10
24326;DHT22;12448;45.532;5.290;2022-09-12T18:31:09;25.20;57.20
24326;DHT22;12448;45.532;5.290;2022-09-12T18:33:35;25.10;57.30
24326;DHT22;12448;45.532;5.290;2022-09-12T18:36:04;25.10;57.50
24326;DHT22;12448;45.532;5.290;2022-09-12T18:38:30;25.10;57.70
24326;DHT22;12448;45.532;5.290;2022-09-12T18:41:06;25.10;58.40
24326;DHT22;12448;45.532;5.290;2022-09-12T18:43:33;25.00;57.90
24326;DHT22;12448;45.532;5.290;2022-09-12T18:46:03;25.00;58.70
24326;DHT22;12448;45.532;5.290;2022-09-12T18:48:30;25.00;58.30
24326;DHT22;12448;45.532;5.290;2022-09-12T18:51:11;24.90;58.40
24326;DHT22;12448;45.532;5.290;2022-09-12T18:53:37;24.90;58.50
24326;DHT22;12448;45.532;5.290;2022-09-12T18:56:06;24.90;58.70
24326;DHT22;12448;45.532;5.290;2022-09-12T18:58:35;24.90;58.80
24326;DHT22;12448;45.532;5.290;2022-09-12T19:01:10;24.80;59.00
24326;DHT22;12448;45.532;5.290;2022-09-12T19:03:36;24.80;59.10
24326;DHT22;12448;45.532;5.290;2022-09-12T19:06:06;24.80;59.30
24326;DHT22;12448;45.532;5.290;2022-09-12T19:08:33;24.80;59.40
24326;DHT22;12448;45.532;5.290;2022-09-12T19:10:59;24.70;59.50
24326;DHT22;12448;45.532;5.290;2022-09-12T19:13:24;24.70;59.60
24326;DHT22;12448;45.532;5.290;2022-09-12T19:15:50;24.70;59.80
24326;DHT22;12448;45.532;5.290;2022-09-12T19:18:16;24.70;59.80
24326;DHT22;12448;45.532;5.290;2022-09-12T19:20:42;24.70;60.00
24326;DHT22;12448;45.532;5.290;2022-09-12T19:23:07;24.60;60.00
24326;DHT22;12448;45.532;5.290;2022-09-12T19:25:33;24.60;60.20
24326;DHT22;12448;45.532;5.290;2022-09-12T19:27:59;24.60;60.30
24326;DHT22;12448;45.532;5.290;2022-09-12T19:30:25;24.60;60.30
24326;DHT22;12448;45.532;5.290;2022-09-12T19:32:50;24.60;60.40
24326;DHT22;12448;45.532;5.290;2022-09-12T19:35:16;24.50;60.50
24326;DHT22;12448;45.532;5.290;2022-09-12T19:37:41;24.50;60.40